Time;durP1;ratioP1;P1;durP2;ratioP2;P2;SDS_P1;SDS_P2;PMS_P1;PMS_P2;Temp;Humidity;BMP_temperature;BMP_pressure;BME280_temperature;BME280_humidity;BME280_pressure;Samples;Min_cycle;Max_cycle;Signal;HPM_P1;HPM_P2
2022/06/25 00:00:17;;;;;;;2.00;1.10;;;;;;;;;;104664;1293;22566;-25
2022/06/25 00:02:54;;;;;;;3.30;1.40;;;;;;;;;;104653;1293;22547;-25
2022/06/25 00:05:32;;;;;;;2.50;1.40;;;;;;;;;;104651;1293;22645;-30
2022/06/25 00:08:09;;;;;;;2.90;2.10;;;;;;;;;;104603;1293;22553;-24
2022/06/25 00:10:46;;;;;;;3.70;1.90;;;;;;;;;;104601;1293;22581;-28
2022/06/25 00:13:24;;;;;;;2.80;2.30;;;;;;;;;;104645;1293;22572;-28
2022/06/25 00:16:01;;;;;;;2.80;2.00;;;;;;;;;;104617;1296;22550;-24
2022/06/25 00:18:39;;;;;;;4.50;2.20;;;;;;;;;;104643;1293;22656;-24
2022/06/25 00:21:16;;;;;;;2.30;1.40;;;;;;;;;;104640;1293;22573;-30
2022/06/25 00:23:53;;;;;;;3.50;1.90;;;;;;;;;;104631;1293;22740;-30
2022/06/25 00:26:31;;;;;;;22.10;19.20;;;;;;;;;;104669;1293;22560;-28
2022/06/25 00:29:10;;;;;;;3.00;2.20;;;;;;;;;;104726;1293;22544;-25
2022/06/25 00:31:47;;;;;;;16.30;2.20;;;;;;;;;;104645;1293;25335;-25
2022/06/25 00:34:26;;;;;;;10.50;9.70;;;;;;;;;;104643;1293;22717;-28
2022/06/25 00:37:04;;;;;;;5.00;4.50;;;;;;;;;;104673;1293;22557;-29
2022/06/25 00:39:43;;;;;;;5.00;2.40;;;;;;;;;;104629;1293;22597;-25
2022/06/25 00:42:21;;;;;;;4.70;2.20;;;;;;;;;;104635;1293;22583;-23
2022/06/25 00:44:58;;;;;;;4.30;2.60;;;;;;;;;;104691;1293;22583;-28
2022/06/25 00:47:35;;;;;;;2.30;2.10;;;;;;;;;;104665;1293;22850;-24
2022/06/25 00:50:12;;;;;;;8.40;2.50;;;;;;;;;;104699;1293;22570;-28
2022/06/25 00:52:52;;;;;;;3.20;2.30;;;;;;;;;;104687;1293;22579;-28
2022/06/25 00:55:30;;;;;;;4.50;2.30;;;;;;;;;;104725;1293;22550;-25
2022/06/25 00:58:10;;;;;;;2.00;1.80;;;;;;;;;;104652;1293;22567;-28
2022/06/25 01:00:47;;;;;;;2.50;2.00;;;;;;;;;;104662;1293;22704;-28
2022/06/25 01:03:25;;;;;;;2.10;2.00;;;;;;;;;;104644;1293;22709;-24
2022/06/25 01:06:03;;;;;;;4.80;2.20;;;;;;;;;;104644;1293;22669;-23
2022/06/25 01:08:40;;;;;;;4.00;2.00;;;;;;;;;;104707;1293;22741;-25
2022/06/25 01:11:17;;;;;;;4.60;1.60;;;;;;;;;;104686;1293;22712;-29
2022/06/25 01:13:55;;;;;;;2.90;2.10;;;;;;;;;;104707;1293;22576;-29
2022/06/25 01:16:32;;;;;;;1.80;1.30;;;;;;;;;;104678;1293;22636;-28
2022/06/25 01:19:10;;;;;;;2.10;1.60;;;;;;;;;;104718;1293;22714;-24
2022/06/25 01:21:47;;;;;;;12.50;2.60;;;;;;;;;;104495;1293;22717;-31
2022/06/25 01:24:24;;;;;;;2.80;1.80;;;;;;;;;;104714;1292;22820;-25
2022/06/25 01:27:11;;;;;;;4.10;2.80;;;;;;;;;;104653;1293;22606;-28
2022/06/25 01:29:48;;;;;;;2.60;2.20;;;;;;;;;;104673;1293;22678;-30
2022/06/25 01:32:25;;;;;;;3.40;2.00;;;;;;;;;;104634;1293;22556;-28
2022/06/25 01:35:03;;;;;;;1.90;1.80;;;;;;;;;;104664;1293;22572;-28
2022/06/25 01:37:40;;;;;;;3.90;1.80;;;;;;;;;;104678;1293;22541;-25
2022/06/25 01:40:18;;;;;;;2.10;1.60;;;;;;;;;;104663;1293;22547;-25
2022/06/25 01:45:36;;;;;;;2.80;2.00;;;;;;;;;;104707;1293;22763;-28
2022/06/25 01:48:13;;;;;;;2.00;1.60;;;;;;;;;;104706;1293;22815;-28
2022/06/25 01:50:51;;;;;;;3.10;1.90;;;;;;;;;;104690;1293;22578;-26
2022/06/25 01:53:29;;;;;;;2.80;2.50;;;;;;;;;;104679;1293;22579;-29
2022/06/25 01:56:07;;;;;;;1.50;1.40;;;;;;;;;;104508;1293;22560;-28
2022/06/25 01:58:45;;;;;;;3.40;2.00;;;;;;;;;;104686;1293;22557;-28
2022/06/25 02:01:22;;;;;;;2.60;2.10;;;;;;;;;;104692;1293;22566;-29
2022/06/25 02:04:00;;;;;;;4.60;1.80;;;;;;;;;;104672;1293;22582;-24
2022/06/25 02:06:37;;;;;;;8.20;2.30;;;;;;;;;;104662;1293;22548;-28
2022/06/25 02:09:14;;;;;;;6.10;2.60;;;;;;;;;;104656;1293;22595;-26
2022/06/25 02:11:51;;;;;;;2.80;2.20;;;;;;;;;;104639;1293;22649;-25
2022/06/25 02:14:29;;;;;;;3.60;1.90;;;;;;;;;;104637;1293;22557;-30
2022/06/25 02:17:06;;;;;;;3.00;1.40;;;;;;;;;;104612;1293;22642;-25
2022/06/25 02:19:44;;;;;;;3.80;1.80;;;;;;;;;;104726;1293;22579;-25
2022/06/25 02:22:21;;;;;;;1.90;1.70;;;;;;;;;;104664;1293;22755;-31
2022/06/25 02:24:58;;;;;;;3.00;1.60;;;;;;;;;;104712;1293;22563;-28
2022/06/25 02:27:36;;;;;;;2.80;2.20;;;;;;;;;;104636;1293;22553;-26
2022/06/25 02:30:13;;;;;;;4.10;2.00;;;;;;;;;;104423;1293;22576;-24
2022/06/25 02:32:50;;;;;;;3.40;1.70;;;;;;;;;;104465;1293;22565;-28
2022/06/25 02:35:28;;;;;;;3.60;2.10;;;;;;;;;;104735;1293;22556;-25
2022/06/25 02:38:05;;;;;;;8.50;2.20;;;;;;;;;;104642;1293;22566;-24
2022/06/25 02:40:43;;;;;;;13.90;2.70;;;;;;;;;;104671;1293;22550;-30
2022/06/25 02:43:20;;;;;;;3.60;1.60;;;;;;;;;;104634;1293;22576;-25
2022/06/25 02:45:57;;;;;;;2.10;1.80;;;;;;;;;;104679;1292;22712;-28
2022/06/25 02:48:35;;;;;;;5.00;2.50;;;;;;;;;;104656;1293;22712;-24
2022/06/25 02:51:12;;;;;;;4.60;2.70;;;;;;;;;;104693;1293;22561;-30
2022/06/25 02:53:49;;;;;;;10.50;2.20;;;;;;;;;;104669;1293;22823;-26
2022/06/25 02:59:08;;;;;;;9.10;2.10;;;;;;;;;;104716;1292;22670;-27
2022/06/25 03:01:45;;;;;;;3.10;1.80;;;;;;;;;;104629;1293;22563;-24
2022/06/25 03:04:24;;;;;;;1.80;1.40;;;;;;;;;;104411;1294;22671;-24
2022/06/25 03:07:01;;;;;;;2.80;2.30;;;;;;;;;;104657;1293;22551;-27
2022/06/25 03:09:39;;;;;;;4.30;1.90;;;;;;;;;;104663;1293;22547;-28
2022/06/25 03:12:16;;;;;;;2.90;2.50;;;;;;;;;;104660;1293;22687;-25
2022/06/25 03:14:53;;;;;;;4.10;2.40;;;;;;;;;;104635;1293;22563;-25
2022/06/25 03:17:31;;;;;;;1.90;1.50;;;;;;;;;;104556;1293;22565;-23
2022/06/25 03:20:08;;;;;;;2.60;2.10;;;;;;;;;;104685;1293;22664;-25
2022/06/25 03:22:46;;;;;;;2.20;2.00;;;;;;;;;;104640;1293;22560;-28
2022/06/25 03:25:23;;;;;;;3.50;2.20;;;;;;;;;;104646;1293;22548;-30
2022/06/25 03:28:01;;;;;;;3.70;1.70;;;;;;;;;;104605;1296;22573;-28
2022/06/25 03:30:38;;;;;;;3.00;2.20;;;;;;;;;;104647;1295;22575;-25
2022/06/25 03:33:15;;;;;;;2.10;1.70;;;;;;;;;;104618;1293;22635;-30
2022/06/25 03:35:53;;;;;;;7.70;2.30;;;;;;;;;;104664;1293;22576;-24
2022/06/25 03:38:30;;;;;;;11.10;2.10;;;;;;;;;;104674;1293;22712;-26
2022/06/25 03:41:32;;;;;;;6.80;1.70;;;;;;;;;;104650;1293;22563;-28
2022/06/25 03:44:05;;;;;;;9.60;2.70;;;;;;;;;;104612;1293;22568;-25
2022/06/25 03:46:43;;;;;;;5.30;2.20;;;;;;;;;;104348;1293;22650;-24
2022/06/25 03:49:20;;;;;;;2.30;1.80;;;;;;;;;;104612;1293;22576;-25
2022/06/25 03:51:57;;;;;;;2.30;1.80;;;;;;;;;;104647;1293;22815;-28
2022/06/25 03:54:36;;;;;;;3.70;2.10;;;;;;;;;;104640;1293;22720;-24
2022/06/25 03:57:13;;;;;;;3.60;2.10;;;;;;;;;;104647;1293;22674;-31
2022/06/25 03:59:51;;;;;;;5.20;2.00;;;;;;;;;;104606;1293;22700;-30
2022/06/25 04:02:28;;;;;;;4.90;2.30;;;;;;;;;;104640;1294;22579;-25
2022/06/25 04:05:06;;;;;;;4.90;2.00;;;;;;;;;;104629;1293;22545;-24
2022/06/25 04:07:43;;;;;;;3.10;2.20;;;;;;;;;;104648;1292;22551;-27
2022/06/25 04:10:21;;;;;;;2.80;2.00;;;;;;;;;;104390;1293;22665;-27
2022/06/25 04:12:58;;;;;;;37.50;10.20;;;;;;;;;;104652;1293;22574;-25
2022/06/25 04:15:36;;;;;;;4.40;2.80;;;;;;;;;;104642;1293;22556;-31
2022/06/25 04:18:13;;;;;;;4.30;2.40;;;;;;;;;;104693;1293;22576;-25
2022/06/25 04:20:50;;;;;;;4.70;2.20;;;;;;;;;;104705;1293;22582;-29
2022/06/25 04:23:28;;;;;;;3.10;2.30;;;;;;;;;;104656;1293;22617;-28
2022/06/25 04:26:05;;;;;;;3.60;2.50;;;;;;;;;;104670;1293;22564;-26
2022/06/25 04:31:23;;;;;;;4.80;2.50;;;;;;;;;;104736;1293;22826;-24
2022/06/25 04:34:01;;;;;;;5.90;2.20;;;;;;;;;;104680;1293;22576;-29
2022/06/25 04:36:38;;;;;;;3.40;2.80;;;;;;;;;;104620;1294;22565;-24
2022/06/25 04:39:16;;;;;;;8.50;2.80;;;;;;;;;;104644;1293;22593;-24
2022/06/25 04:41:53;;;;;;;8.20;3.60;;;;;;;;;;104648;1293;22556;-28
2022/06/25 04:44:30;;;;;;;2.80;2.30;;;;;;;;;;104685;1293;22671;-28
2022/06/25 04:47:09;;;;;;;5.40;3.00;;;;;;;;;;104687;1293;22561;-27
2022/06/25 04:49:46;;;;;;;3.80;2.80;;;;;;;;;;104324;1296;22653;-27
2022/06/25 04:52:24;;;;;;;3.20;2.60;;;;;;;;;;104658;1293;22603;-28
2022/06/25 04:55:01;;;;;;;3.10;2.50;;;;;;;;;;104654;1293;22556;-25
2022/06/25 04:57:39;;;;;;;3.70;2.80;;;;;;;;;;104654;1294;22569;-25
2022/06/25 05:00:16;;;;;;;4.50;2.70;;;;;;;;;;104524;1293;22554;-28
2022/06/25 05:02:53;;;;;;;7.10;2.60;;;;;;;;;;104675;1293;22871;-29
2022/06/25 05:05:31;;;;;;;8.80;3.30;;;;;;;;;;104706;1293;22566;-29
2022/06/25 05:08:08;;;;;;;2.60;2.20;;;;;;;;;;104655;1293;22544;-26
2022/06/25 05:10:46;;;;;;;3.70;2.70;;;;;;;;;;104683;1293;22569;-25
2022/06/25 05:13:24;;;;;;;6.80;2.60;;;;;;;;;;104667;1293;22543;-25
2022/06/25 05:16:01;;;;;;;3.20;2.30;;;;;;;;;;104648;1294;22557;-25
2022/06/25 05:18:38;;;;;;;4.10;2.60;;;;;;;;;;104666;1293;22550;-31
2022/06/25 05:21:16;;;;;;;2.40;1.70;;;;;;;;;;104216;1296;22553;-31
2022/06/25 05:23:53;;;;;;;4.30;2.40;;;;;;;;;;104681;1296;22581;-29
2022/06/25 05:26:31;;;;;;;4.30;2.50;;;;;;;;;;104677;1293;22572;-28
2022/06/25 05:29:08;;;;;;;4.70;3.70;;;;;;;;;;104648;1293;22554;-29
2022/06/25 05:31:45;;;;;;;3.00;2.40;;;;;;;;;;104707;1293;22570;-25
2022/06/25 05:34:23;;;;;;;2.70;2.50;;;;;;;;;;104654;1293;22575;-31
2022/06/25 05:37:00;;;;;;;5.30;2.80;;;;;;;;;;104655;1293;22621;-24
2022/06/25 05:39:37;;;;;;;6.80;3.50;;;;;;;;;;104684;1293;22575;-26
2022/06/25 05:42:15;;;;;;;4.50;3.10;;;;;;;;;;104642;1293;22572;-30
2022/06/25 05:44:52;;;;;;;5.60;2.50;;;;;;;;;;104690;1293;22541;-30
2022/06/25 05:47:30;;;;;;;2.20;2.00;;;;;;;;;;104660;1293;25327;-28
2022/06/25 05:50:07;;;;;;;3.00;2.40;;;;;;;;;;104332;1296;22508;-28
2022/06/25 05:52:44;;;;;;;3.80;2.30;;;;;;;;;;104625;1293;22557;-31
2022/06/25 05:55:22;;;;;;;4.30;2.60;;;;;;;;;;104658;1293;22544;-31
2022/06/25 05:58:00;;;;;;;2.40;2.20;;;;;;;;;;104672;1293;22555;-28
2022/06/25 06:00:37;;;;;;;3.70;2.60;;;;;;;;;;104689;1293;22556;-25
2022/06/25 06:03:14;;;;;;;7.60;2.10;;;;;;;;;;104699;1293;22575;-28
2022/06/25 06:05:52;;;;;;;9.60;2.10;;;;;;;;;;104722;1293;22578;-30
2022/06/25 06:08:29;;;;;;;9.20;2.70;;;;;;;;;;104674;1293;22630;-27
2022/06/25 06:11:06;;;;;;;8.50;2.00;;;;;;;;;;104760;1293;22544;-26
2022/06/25 06:13:43;;;;;;;2.30;1.60;;;;;;;;;;104667;1293;22576;-26
2022/06/25 06:16:21;;;;;;;3.10;2.20;;;;;;;;;;104658;1294;22601;-30
2022/06/25 06:18:58;;;;;;;4.10;2.20;;;;;;;;;;104640;1293;22562;-28
2022/06/25 06:21:35;;;;;;;2.70;2.00;;;;;;;;;;104658;1293;22722;-27
2022/06/25 06:24:13;;;;;;;5.00;2.10;;;;;;;;;;104680;1293;22571;-26
2022/06/25 06:26:50;;;;;;;5.30;2.70;;;;;;;;;;104654;1293;22576;-24
2022/06/25 06:29:28;;;;;;;4.90;1.80;;;;;;;;;;104591;1294;22601;-27
2022/06/25 06:32:06;;;;;;;3.20;2.00;;;;;;;;;;104688;1293;22570;-24
2022/06/25 06:34:44;;;;;;;2.10;1.40;;;;;;;;;;104636;1293;22742;-25
2022/06/25 06:37:21;;;;;;;3.90;2.00;;;;;;;;;;104654;1293;22602;-25
2022/06/25 06:39:58;;;;;;;2.60;1.70;;;;;;;;;;104655;1293;22645;-25
2022/06/25 06:42:36;;;;;;;1.90;1.40;;;;;;;;;;104646;1293;22554;-24
2022/06/25 06:45:13;;;;;;;2.00;1.50;;;;;;;;;;104608;1293;22573;-25
2022/06/25 06:47:51;;;;;;;3.40;1.30;;;;;;;;;;104641;1293;22576;-25
2022/06/25 06:50:28;;;;;;;1.70;1.10;;;;;;;;;;104621;1293;22586;-25
2022/06/25 06:53:05;;;;;;;4.10;1.30;;;;;;;;;;104643;1294;22651;-25
2022/06/25 06:55:43;;;;;;;2.40;1.80;;;;;;;;;;104660;1293;22649;-25
2022/06/25 06:58:20;;;;;;;1.70;1.30;;;;;;;;;;104682;1293;22551;-25
2022/06/25 07:00:57;;;;;;;1.20;1.10;;;;;;;;;;104667;1293;22659;-26
2022/06/25 07:03:35;;;;;;;2.50;1.50;;;;;;;;;;104615;1293;22576;-24
2022/06/25 07:06:12;;;;;;;7.20;2.30;;;;;;;;;;104609;1292;25446;-31
2022/06/25 07:08:49;;;;;;;2.90;1.60;;;;;;;;;;104662;1293;22613;-26
2022/06/25 07:11:28;;;;;;;4.30;1.70;;;;;;;;;;104656;1293;22553;-24
2022/06/25 07:14:05;;;;;;;7.50;1.40;;;;;;;;;;104257;1296;22632;-26
2022/06/25 07:16:43;;;;;;;1.90;1.70;;;;;;;;;;104378;1294;22660;-25
2022/06/25 07:19:20;;;;;;;4.90;1.70;;;;;;;;;;104436;1296;267874;-25
2022/06/25 07:21:57;;;;;;;2.10;1.30;;;;;;;;;;104612;1294;22560;-28
2022/06/25 07:24:35;;;;;;;14.30;2.20;;;;;;;;;;104640;1293;22553;-29
2022/06/25 07:27:12;;;;;;;1.50;1.30;;;;;;;;;;104665;1293;22567;-28
2022/06/25 07:29:49;;;;;;;2.50;1.50;;;;;;;;;;104654;1293;22739;-26
2022/06/25 07:32:27;;;;;;;4.40;1.10;;;;;;;;;;104596;1293;22553;-25
2022/06/25 07:35:04;;;;;;;1.90;1.40;;;;;;;;;;104650;1293;22549;-29
2022/06/25 07:37:42;;;;;;;2.80;1.40;;;;;;;;;;104581;1293;22579;-29
2022/06/25 07:40:22;;;;;;;2.10;1.60;;;;;;;;;;104175;1296;22655;-25
2022/06/25 07:42:59;;;;;;;3.00;1.60;;;;;;;;;;104693;1293;22556;-25
2022/06/25 07:45:37;;;;;;;2.60;1.50;;;;;;;;;;104669;1293;22565;-23
2022/06/25 07:48:14;;;;;;;2.30;1.40;;;;;;;;;;104646;1295;22668;-29
2022/06/25 07:53:49;;;;;;;5.70;1.50;;;;;;;;;;104653;1294;22553;-30
2022/06/25 07:56:26;;;;;;;2.70;0.90;;;;;;;;;;104681;1293;22687;-28
2022/06/25 07:59:04;;;;;;;1.90;1.60;;;;;;;;;;104606;1293;22610;-28
2022/06/25 08:01:42;;;;;;;1.70;1.10;;;;;;;;;;104647;1296;22575;-28
2022/06/25 08:04:19;;;;;;;3.20;1.40;;;;;;;;;;104608;1294;22558;-24
2022/06/25 08:06:56;;;;;;;1.20;1.00;;;;;;;;;;104655;1293;22639;-30
2022/06/25 08:09:34;;;;;;;1.20;0.70;;;;;;;;;;104642;1293;22611;-30
2022/06/25 08:12:11;;;;;;;3.00;0.90;;;;;;;;;;104669;1293;22670;-26
2022/06/25 08:14:49;;;;;;;5.70;1.20;;;;;;;;;;104659;1294;22647;-30
2022/06/25 08:17:26;;;;;;;2.10;1.00;;;;;;;;;;104636;1296;22724;-26
2022/06/25 08:20:04;;;;;;;2.80;1.30;;;;;;;;;;104663;1293;22670;-29
2022/06/25 08:22:41;;;;;;;1.70;0.90;;;;;;;;;;104644;1296;22577;-29
2022/06/25 08:25:18;;;;;;;3.60;1.10;;;;;;;;;;104667;1294;22827;-29
2022/06/25 08:27:56;;;;;;;4.10;1.40;;;;;;;;;;104679;1296;22576;-25
2022/06/25 08:30:33;;;;;;;0.80;0.70;;;;;;;;;;104687;1293;22632;-28
2022/06/25 08:33:11;;;;;;;0.70;0.70;;;;;;;;;;104622;1293;22574;-23
2022/06/25 08:35:48;;;;;;;2.00;0.80;;;;;;;;;;104640;1296;22582;-30
2022/06/25 08:38:25;;;;;;;3.00;1.20;;;;;;;;;;104678;1293;22572;-28
2022/06/25 08:41:03;;;;;;;1.40;1.10;;;;;;;;;;104614;1294;22576;-28
2022/06/25 08:43:40;;;;;;;0.60;0.60;;;;;;;;;;104655;1296;22565;-27
2022/06/25 08:46:18;;;;;;;2.80;0.80;;;;;;;;;;104712;1294;22576;-24
2022/06/25 08:48:56;;;;;;;1.20;0.60;;;;;;;;;;104613;1296;22576;-28
2022/06/25 08:51:33;;;;;;;0.90;0.50;;;;;;;;;;104644;1294;22738;-26
2022/06/25 08:54:11;;;;;;;2.80;0.90;;;;;;;;;;104666;1294;22725;-28
2022/06/25 08:56:48;;;;;;;1.60;0.60;;;;;;;;;;104663;1294;22657;-25
2022/06/25 08:59:26;;;;;;;3.50;0.70;;;;;;;;;;104616;1293;22550;-24
2022/06/25 09:02:03;;;;;;;3.70;0.60;;;;;;;;;;104684;1294;22566;-28
2022/06/25 09:04:41;;;;;;;1.50;0.50;;;;;;;;;;104651;1294;22575;-25
2022/06/25 09:07:20;;;;;;;1.30;0.60;;;;;;;;;;104673;1296;22548;-30
2022/06/25 09:09:57;;;;;;;8.00;0.80;;;;;;;;;;104667;1294;22572;-24
2022/06/25 09:12:35;;;;;;;1.40;0.80;;;;;;;;;;104652;1293;22648;-25
2022/06/25 09:15:17;;;;;;;1.80;0.90;;;;;;;;;;104627;1294;22547;-28
2022/06/25 09:17:55;;;;;;;2.40;0.80;;;;;;;;;;104623;1296;22588;-24
2022/06/25 09:20:32;;;;;;;1.20;0.70;;;;;;;;;;104644;1294;22586;-24
2022/06/25 09:23:10;;;;;;;0.90;0.60;;;;;;;;;;104700;1293;22647;-25
2022/06/25 09:25:48;;;;;;;4.50;0.80;;;;;;;;;;104623;1293;22564;-29
2022/06/25 09:28:29;;;;;;;1.70;0.60;;;;;;;;;;104621;1296;22563;-25
2022/06/25 09:31:07;;;;;;;1.70;0.60;;;;;;;;;;104702;1294;22583;-29
2022/06/25 09:33:44;;;;;;;2.90;0.90;;;;;;;;;;104690;1293;22572;-30
2022/06/25 09:36:23;;;;;;;1.10;0.60;;;;;;;;;;104674;1293;22668;-25
2022/06/25 09:39:01;;;;;;;2.50;0.60;;;;;;;;;;104642;1292;22582;-29
2022/06/25 09:41:41;;;;;;;3.00;1.50;;;;;;;;;;104697;1296;23025;-23
2022/06/25 09:44:19;;;;;;;3.50;1.00;;;;;;;;;;104574;1293;22558;-28
2022/06/25 09:46:56;;;;;;;0.90;0.60;;;;;;;;;;104641;1293;22566;-28
2022/06/25 09:49:34;;;;;;;6.10;0.60;;;;;;;;;;104672;1293;22932;-28
2022/06/25 09:52:12;;;;;;;2.60;0.60;;;;;;;;;;104665;1293;22550;-24
2022/06/25 09:54:49;;;;;;;4.20;0.80;;;;;;;;;;104657;1294;22566;-28
2022/06/25 09:57:26;;;;;;;3.00;0.80;;;;;;;;;;104631;1293;22668;-28
2022/06/25 10:00:04;;;;;;;4.40;0.70;;;;;;;;;;104700;1293;22572;-28
2022/06/25 10:02:42;;;;;;;2.00;1.40;;;;;;;;;;104647;1293;22605;-24
2022/06/25 10:05:23;;;;;;;3.50;0.70;;;;;;;;;;104670;1293;22575;-28
2022/06/25 10:08:00;;;;;;;3.00;1.00;;;;;;;;;;104689;1293;25330;-24
2022/06/25 10:10:38;;;;;;;2.80;0.90;;;;;;;;;;104638;1293;22621;-24
2022/06/25 10:13:16;;;;;;;1.50;0.70;;;;;;;;;;104651;1293;22571;-24
2022/06/25 10:15:54;;;;;;;0.90;0.70;;;;;;;;;;104653;1293;22639;-26
2022/06/25 10:18:32;;;;;;;3.10;1.30;;;;;;;;;;104683;1293;22573;-29
2022/06/25 10:21:09;;;;;;;0.90;0.60;;;;;;;;;;104665;1293;22555;-28
2022/06/25 10:23:48;;;;;;;3.00;1.00;;;;;;;;;;104664;1293;22585;-28
2022/06/25 10:26:26;;;;;;;2.30;1.10;;;;;;;;;;104645;1293;22713;-25
2022/06/25 10:29:04;;;;;;;0.60;0.60;;;;;;;;;;104666;1293;22580;-27
2022/06/25 10:31:41;;;;;;;2.00;0.70;;;;;;;;;;104618;1294;22556;-24
2022/06/25 10:34:18;;;;;;;3.30;0.40;;;;;;;;;;104652;1293;22578;-24
2022/06/25 10:36:57;;;;;;;3.10;0.70;;;;;;;;;;104638;1293;22723;-28
2022/06/25 10:39:35;;;;;;;1.10;0.60;;;;;;;;;;104625;1293;22554;-24
2022/06/25 10:44:53;;;;;;;1.50;1.10;;;;;;;;;;104650;1293;22573;-24
2022/06/25 10:47:34;;;;;;;0.90;0.80;;;;;;;;;;104667;1293;22560;-34
2022/06/25 10:50:15;;;;;;;3.10;1.70;;;;;;;;;;104700;1293;22720;-24
2022/06/25 10:52:56;;;;;;;4.10;1.00;;;;;;;;;;104667;1296;22668;-28
2022/06/25 10:55:34;;;;;;;1.90;1.10;;;;;;;;;;104658;1293;22595;-29
2022/06/25 10:58:12;;;;;;;4.10;1.30;;;;;;;;;;104617;1293;22588;-24
2022/06/25 11:00:53;;;;;;;2.80;0.80;;;;;;;;;;104642;1293;22586;-25
2022/06/25 11:03:41;;;;;;;1.80;0.90;;;;;;;;;;104638;1293;22603;-28
2022/06/25 11:06:20;;;;;;;2.00;0.60;;;;;;;;;;104656;1293;22572;-25
2022/06/25 11:09:01;;;;;;;1.80;0.70;;;;;;;;;;104604;1293;22572;-24
2022/06/25 11:11:39;;;;;;;3.20;0.90;;;;;;;;;;104696;1293;22563;-24
2022/06/25 11:14:18;;;;;;;2.00;1.00;;;;;;;;;;104579;1293;22573;-30
2022/06/25 11:16:55;;;;;;;1.90;0.80;;;;;;;;;;104651;1293;22734;-25
2022/06/25 11:19:33;;;;;;;4.70;0.80;;;;;;;;;;104598;1293;22544;-24
2022/06/25 11:22:10;;;;;;;7.50;0.70;;;;;;;;;;104620;1293;22643;-25
2022/06/25 11:30:11;;;;;;;1.40;0.70;;;;;;;;;;104631;1293;22646;-27
2022/06/25 11:32:48;;;;;;;6.00;0.90;;;;;;;;;;104633;1295;22764;-26
2022/06/25 11:35:37;;;;;;;2.40;0.70;;;;;;;;;;104610;1293;22717;-24
2022/06/25 11:38:15;;;;;;;3.50;0.80;;;;;;;;;;104601;1293;22574;-28
2022/06/25 11:40:52;;;;;;;2.40;0.80;;;;;;;;;;104608;1293;22602;-22
2022/06/25 11:43:30;;;;;;;1.80;0.90;;;;;;;;;;104618;1295;22598;-24
2022/06/25 11:46:08;;;;;;;2.00;0.80;;;;;;;;;;104316;1293;22718;-28
2022/06/25 11:48:46;;;;;;;1.80;0.70;;;;;;;;;;104606;1293;22586;-28
2022/06/25 11:51:24;;;;;;;0.90;0.80;;;;;;;;;;104585;1293;22574;-28
2022/06/25 11:54:03;;;;;;;1.80;0.70;;;;;;;;;;104610;1293;22580;-28
2022/06/25 11:56:44;;;;;;;2.10;0.80;;;;;;;;;;104602;1293;22760;-24
2022/06/25 11:59:23;;;;;;;2.80;1.20;;;;;;;;;;104663;1293;22551;-22
2022/06/25 12:02:03;;;;;;;9.00;2.60;;;;;;;;;;104345;1293;22573;-24
2022/06/25 12:04:44;;;;;;;2.70;1.30;;;;;;;;;;104570;1293;22554;-30
2022/06/25 12:07:22;;;;;;;1.90;0.80;;;;;;;;;;104611;1293;22548;-25
2022/06/25 12:10:02;;;;;;;2.50;0.70;;;;;;;;;;104611;1293;22579;-25
2022/06/25 12:12:39;;;;;;;3.10;0.90;;;;;;;;;;104634;1293;22848;-28
2022/06/25 12:15:17;;;;;;;12.20;1.10;;;;;;;;;;104403;1293;22954;-25
2022/06/25 12:18:01;;;;;;;1.30;0.80;;;;;;;;;;104628;1293;22685;-25
2022/06/25 12:20:42;;;;;;;0.90;0.70;;;;;;;;;;104640;1293;22579;-25
2022/06/25 12:23:19;;;;;;;45.50;5.60;;;;;;;;;;104612;1293;22560;-28
2022/06/25 12:25:57;;;;;;;1.70;1.10;;;;;;;;;;104577;1293;22575;-29
2022/06/25 12:28:35;;;;;;;2.90;0.90;;;;;;;;;;104598;1293;22592;-28
2022/06/25 12:31:14;;;;;;;2.20;1.10;;;;;;;;;;104591;1293;22576;-24
2022/06/25 12:33:53;;;;;;;1.70;0.70;;;;;;;;;;104599;1293;22847;-30
2022/06/25 12:36:33;;;;;;;1.00;0.80;;;;;;;;;;104621;1293;22554;-25
2022/06/25 12:39:14;;;;;;;1.40;0.60;;;;;;;;;;104682;1293;22574;-28
2022/06/25 12:41:51;;;;;;;1.20;0.70;;;;;;;;;;104662;1293;22735;-25
2022/06/25 12:44:30;;;;;;;1.80;0.80;;;;;;;;;;104619;1293;22596;-25
2022/06/25 12:47:08;;;;;;;2.80;0.80;;;;;;;;;;104623;1295;22576;-24
2022/06/25 12:49:47;;;;;;;2.60;0.60;;;;;;;;;;104312;1293;22569;-25
2022/06/25 12:52:26;;;;;;;2.30;0.80;;;;;;;;;;104650;1293;22660;-29
2022/06/25 12:55:04;;;;;;;1.90;0.60;;;;;;;;;;104631;1293;22706;-25
2022/06/25 12:57:41;;;;;;;1.50;1.00;;;;;;;;;;104645;1293;22868;-26
2022/06/25 13:00:20;;;;;;;1.60;1.10;;;;;;;;;;104663;1293;22710;-28
2022/06/25 13:02:58;;;;;;;0.80;0.50;;;;;;;;;;104663;1293;23074;-27
2022/06/25 13:05:35;;;;;;;1.70;1.00;;;;;;;;;;104637;1293;22548;-25
2022/06/25 13:08:12;;;;;;;8.50;0.90;;;;;;;;;;104636;1293;22553;-24
2022/06/25 13:10:50;;;;;;;1.80;0.90;;;;;;;;;;104643;1295;22589;-27
2022/06/25 13:13:27;;;;;;;2.20;1.10;;;;;;;;;;104647;1293;22811;-26
2022/06/25 13:16:05;;;;;;;3.80;1.00;;;;;;;;;;104632;1293;22580;-28
2022/06/25 13:18:43;;;;;;;1.30;1.00;;;;;;;;;;104653;1296;22568;-28
2022/06/25 13:21:20;;;;;;;1.00;0.90;;;;;;;;;;104635;1294;22704;-28
2022/06/25 13:23:57;;;;;;;1.10;0.90;;;;;;;;;;104656;1293;22584;-24
2022/06/25 13:26:35;;;;;;;0.90;0.90;;;;;;;;;;104627;1293;22554;-34
2022/06/25 13:29:12;;;;;;;2.90;1.40;;;;;;;;;;104608;1293;22591;-25
2022/06/25 13:31:50;;;;;;;3.10;1.20;;;;;;;;;;104641;1293;22575;-25
2022/06/25 13:34:27;;;;;;;3.50;2.00;;;;;;;;;;104615;1293;22553;-25
2022/06/25 13:37:04;;;;;;;2.90;1.70;;;;;;;;;;104644;1292;22575;-29
2022/06/25 13:39:42;;;;;;;4.00;1.70;;;;;;;;;;104629;1293;22567;-30
2022/06/25 13:42:19;;;;;;;1.30;0.80;;;;;;;;;;104355;1293;22599;-24
2022/06/25 13:44:57;;;;;;;1.20;1.00;;;;;;;;;;104627;1293;22601;-26
2022/06/25 13:47:36;;;;;;;1.40;0.80;;;;;;;;;;104623;1293;22618;-24
2022/06/25 13:50:13;;;;;;;3.00;2.60;;;;;;;;;;104610;1293;22564;-24
2022/06/25 13:52:50;;;;;;;0.90;0.70;;;;;;;;;;104260;1295;22589;-24
2022/06/25 13:55:28;;;;;;;1.00;0.70;;;;;;;;;;104633;1293;22727;-25
2022/06/25 13:58:05;;;;;;;1.20;0.70;;;;;;;;;;104648;1292;22783;-25
2022/06/25 14:00:43;;;;;;;1.50;1.00;;;;;;;;;;104632;1293;22585;-29
2022/06/25 14:03:58;;;;;;;1.10;0.60;;;;;;;;;;101690;1326;545745;-28
2022/06/25 14:06:39;;;;;;;1.50;0.70;;;;;;;;;;101615;1336;22611;-28
2022/06/25 14:09:17;;;;;;;1.20;0.80;;;;;;;;;;101699;1340;22627;-25
2022/06/25 14:11:46;;;;;;;11.80;1.00;;;;;;;;;;101637;1340;22616;-28
2022/06/25 14:14:15;;;;;;;3.00;1.00;;;;;;;;;;101541;1332;22604;-24
2022/06/25 14:16:44;;;;;;;1.40;0.80;;;;;;;;;;101503;1334;217820;-24
2022/06/25 14:19:12;;;;;;;2.70;1.00;;;;;;;;;;101809;1338;22614;-28
2022/06/25 14:21:41;;;;;;;5.50;0.70;;;;;;;;;;101816;1338;22670;-24
2022/06/25 14:24:10;;;;;;;1.20;0.80;;;;;;;;;;101740;1338;22624;-24
2022/06/25 14:26:39;;;;;;;3.50;1.30;;;;;;;;;;101921;1338;22600;-26
2022/06/25 14:29:08;;;;;;;2.50;0.90;;;;;;;;;;101884;1338;22728;-28
2022/06/25 14:31:38;;;;;;;1.80;1.20;;;;;;;;;;101857;1338;22622;-24
2022/06/25 14:34:07;;;;;;;2.20;1.10;;;;;;;;;;101795;1337;22738;-29
2022/06/25 14:44:12;;;;;;;2.00;0.80;;;;;;;;;;101914;1338;22627;-28
2022/06/25 14:46:41;;;;;;;1.80;1.10;;;;;;;;;;101850;1338;22822;-24
2022/06/25 14:49:11;;;;;;;1.30;0.90;;;;;;;;;;101857;1330;22593;-24
2022/06/25 14:51:41;;;;;;;1.50;1.20;;;;;;;;;;101935;1332;22609;-24
2022/06/25 14:54:10;;;;;;;1.20;0.80;;;;;;;;;;101762;1338;22730;-24
2022/06/25 14:56:39;;;;;;;2.70;0.90;;;;;;;;;;101988;1338;22724;-31
2022/06/25 14:59:08;;;;;;;4.60;0.80;;;;;;;;;;101817;1338;22911;-28
2022/06/25 15:01:37;;;;;;;2.00;1.00;;;;;;;;;;101768;1338;22589;-30
2022/06/25 15:04:06;;;;;;;1.20;0.90;;;;;;;;;;101766;1338;22621;-26
2022/06/25 15:06:35;;;;;;;1.80;0.80;;;;;;;;;;101878;1338;22613;-23
2022/06/25 15:09:04;;;;;;;2.70;1.00;;;;;;;;;;101787;1338;22599;-27
2022/06/25 15:11:33;;;;;;;1.90;1.40;;;;;;;;;;101726;1338;22657;-28
2022/06/25 15:14:02;;;;;;;0.60;0.60;;;;;;;;;;101861;1332;22623;-24
2022/06/25 15:16:31;;;;;;;2.20;1.00;;;;;;;;;;101878;1338;22607;-24
2022/06/25 15:19:00;;;;;;;1.40;1.10;;;;;;;;;;101757;1338;22589;-30
2022/06/25 15:21:28;;;;;;;1.90;1.10;;;;;;;;;;101816;1338;22599;-29
2022/06/25 15:23:57;;;;;;;2.10;1.50;;;;;;;;;;101910;1338;22596;-24
2022/06/25 15:26:26;;;;;;;23.00;6.50;;;;;;;;;;101911;1338;22618;-28
2022/06/25 15:28:55;;;;;;;1.40;1.10;;;;;;;;;;101926;1338;22608;-30
2022/06/25 15:31:24;;;;;;;4.00;1.30;;;;;;;;;;101950;1338;22606;-26
2022/06/25 15:33:53;;;;;;;1.00;0.90;;;;;;;;;;101930;1338;22631;-25
2022/06/25 15:36:22;;;;;;;2.80;0.80;;;;;;;;;;101774;1338;22597;-30
2022/06/25 15:38:50;;;;;;;1.70;0.90;;;;;;;;;;101741;1332;22620;-28
2022/06/25 15:41:20;;;;;;;2.50;1.50;;;;;;;;;;101633;1338;22600;-25
2022/06/25 15:43:49;;;;;;;1.10;0.70;;;;;;;;;;101741;1332;22616;-25
2022/06/25 15:46:18;;;;;;;2.20;1.00;;;;;;;;;;101761;1332;22595;-28
2022/06/25 15:48:47;;;;;;;2.70;0.90;;;;;;;;;;101975;1338;22565;-28
2022/06/25 15:51:16;;;;;;;2.20;0.90;;;;;;;;;;101837;1338;22595;-24